Terminal Aerodrome Forecast
Issued by NWS

Home | Current Version | Previous Version | Text Only | Print | Product List | Glossary On
Versions: 1 2 3 4 5 6 7 8 9 10 11 12 13 14 15 16 17
612
FTUS42 TJSJ 222330
TAFJSJ
TAF
TJSJ 222330Z 2300/2324 11005KT P6SM -RA SCT060
     FM231300 07012KT P6SM SCT030 SCT050
     FM231630 07015KT P6SM VCTS SCT030CB BKN050
     FM232300 11005KT P6SM SCT060=

USA.gov is the U.S. government's official web portal to all federal, state and local government web resources and services.